sensor_id;sensor_type;location;lat;lon;timestamp;temperature;humidity
23591;DHT22;11973;52.098;7.582;2022-11-22T00:00:37;3.50;99.90
23591;DHT22;11973;52.098;7.582;2022-11-22T00:03:03;3.50;99.90
23591;DHT22;11973;52.098;7.582;2022-11-22T00:05:29;3.50;99.90
23591;DHT22;11973;52.098;7.582;2022-11-22T00:07:55;3.50;99.90
23591;DHT22;11973;52.098;7.582;2022-11-22T00:10:20;3.80;99.90
23591;DHT22;11973;52.098;7.582;2022-11-22T00:12:46;3.60;99.90
23591;DHT22;11973;52.098;7.582;2022-11-22T00:15:12;3.60;99.90
23591;DHT22;11973;52.098;7.582;2022-11-22T00:17:38;3.60;99.90
23591;DHT22;11973;52.098;7.582;2022-11-22T00:20:05;3.60;99.90
23591;DHT22;11973;52.098;7.582;2022-11-22T00:22:31;3.60;99.90
23591;DHT22;11973;52.098;7.582;2022-11-22T00:24:57;3.70;99.90
23591;DHT22;11973;52.098;7.582;2022-11-22T00:27:23;3.70;99.90
23591;DHT22;11973;52.098;7.582;2022-11-22T00:29:48;3.70;99.90
23591;DHT22;11973;52.098;7.582;2022-11-22T00:32:15;3.80;99.90
23591;DHT22;11973;52.098;7.582;2022-11-22T00:34:40;3.90;99.90
23591;DHT22;11973;52.098;7.582;2022-11-22T00:37:06;3.80;99.90
23591;DHT22;11973;52.098;7.582;2022-11-22T00:39:32;3.80;99.90
23591;DHT22;11973;52.098;7.582;2022-11-22T00:41:57;3.80;99.90
23591;DHT22;11973;52.098;7.582;2022-11-22T00:44:23;3.80;99.90
23591;DHT22;11973;52.098;7.582;2022-11-22T00:46:49;3.90;99.90
23591;DHT22;11973;52.098;7.582;2022-11-22T00:49:15;3.90;99.90
23591;DHT22;11973;52.098;7.582;2022-11-22T00:51:40;3.90;99.90
23591;DHT22;11973;52.098;7.582;2022-11-22T00:54:06;3.90;99.90
23591;DHT22;11973;52.098;7.582;2022-11-22T00:56:32;3.90;99.90
23591;DHT22;11973;52.098;7.582;2022-11-22T00:58:58;3.90;99.90
23591;DHT22;11973;52.098;7.582;2022-11-22T01:01:24;3.90;99.90
23591;DHT22;11973;52.098;7.582;2022-11-22T01:03:50;3.90;99.90
23591;DHT22;11973;52.098;7.582;2022-11-22T01:06:15;4.00;99.90
23591;DHT22;11973;52.098;7.582;2022-11-22T01:08:41;4.00;99.90
23591;DHT22;11973;52.098;7.582;2022-11-22T01:11:07;4.00;99.90
23591;DHT22;11973;52.098;7.582;2022-11-22T01:13:33;4.00;99.90
23591;DHT22;11973;52.098;7.582;2022-11-22T01:16:00;4.00;99.90
23591;DHT22;11973;52.098;7.582;2022-11-22T01:18:26;4.00;99.90
23591;DHT22;11973;52.098;7.582;2022-11-22T01:20:52;4.10;99.90
23591;DHT22;11973;52.098;7.582;2022-11-22T01:23:18;4.10;99.90
23591;DHT22;11973;52.098;7.582;2022-11-22T01:25:44;4.10;99.90
23591;DHT22;11973;52.098;7.582;2022-11-22T01:28:10;4.10;99.90
23591;DHT22;11973;52.098;7.582;2022-11-22T01:30:36;4.10;99.90
23591;DHT22;11973;52.098;7.582;2022-11-22T01:33:03;4.10;99.90
23591;DHT22;11973;52.098;7.582;2022-11-22T01:35:29;4.10;99.90
23591;DHT22;11973;52.098;7.582;2022-11-22T01:37:54;4.10;99.90
23591;DHT22;11973;52.098;7.582;2022-11-22T01:40:20;4.20;99.90
23591;DHT22;11973;52.098;7.582;2022-11-22T01:42:50;4.20;99.90
23591;DHT22;11973;52.098;7.582;2022-11-22T01:51:04;4.20;99.90
23591;DHT22;11973;52.098;7.582;2022-11-22T01:53:35;4.20;99.90
23591;DHT22;11973;52.098;7.582;2022-11-22T01:56:02;4.20;99.90
23591;DHT22;11973;52.098;7.582;2022-11-22T01:58:31;4.20;99.90
23591;DHT22;11973;52.098;7.582;2022-11-22T02:00:57;4.20;99.90
23591;DHT22;11973;52.098;7.582;2022-11-22T02:03:24;4.40;99.90
23591;DHT22;11973;52.098;7.582;2022-11-22T02:05:52;4.50;99.90
23591;DHT22;11973;52.098;7.582;2022-11-22T02:10:55;4.50;99.90
23591;DHT22;11973;52.098;7.582;2022-11-22T02:13:21;4.30;99.90
23591;DHT22;11973;52.098;7.582;2022-11-22T02:15:50;4.30;99.90
23591;DHT22;11973;52.098;7.582;2022-11-22T02:18:16;4.30;99.90
23591;DHT22;11973;52.098;7.582;2022-11-22T02:20:42;4.50;99.90
23591;DHT22;11973;52.098;7.582;2022-11-22T02:25:58;4.30;99.90
23591;DHT22;11973;52.098;7.582;2022-11-22T02:28:24;4.30;99.90
23591;DHT22;11973;52.098;7.582;2022-11-22T02:30:51;4.30;99.90
23591;DHT22;11973;52.098;7.582;2022-11-22T02:33:16;4.30;99.90
23591;DHT22;11973;52.098;7.582;2022-11-22T02:35:43;4.30;99.90
23591;DHT22;11973;52.098;7.582;2022-11-22T02:38:21;4.30;99.90
23591;DHT22;11973;52.098;7.582;2022-11-22T02:43:17;4.40;99.90
23591;DHT22;11973;52.098;7.582;2022-11-22T02:45:44;4.40;99.90
23591;DHT22;11973;52.098;7.582;2022-11-22T02:48:12;4.50;99.90
23591;DHT22;11973;52.098;7.582;2022-11-22T02:50:39;4.40;99.90
23591;DHT22;11973;52.098;7.582;2022-11-22T02:53:05;4.40;99.90
23591;DHT22;11973;52.098;7.582;2022-11-22T02:55:32;4.40;99.90
23591;DHT22;11973;52.098;7.582;2022-11-22T02:57:58;4.40;99.90
23591;DHT22;11973;52.098;7.582;2022-11-22T03:00:24;4.40;99.90
23591;DHT22;11973;52.098;7.582;2022-11-22T03:02:50;4.50;99.90
23591;DHT22;11973;52.098;7.582;2022-11-22T03:05:16;4.40;99.90
23591;DHT22;11973;52.098;7.582;2022-11-22T03:07:41;4.60;99.90
23591;DHT22;11973;52.098;7.582;2022-11-22T03:10:08;4.40;99.90
23591;DHT22;11973;52.098;7.582;2022-11-22T03:12:34;4.40;99.90
23591;DHT22;11973;52.098;7.582;2022-11-22T03:14:59;4.40;99.90
23591;DHT22;11973;52.098;7.582;2022-11-22T03:17:25;4.60;99.90
23591;DHT22;11973;52.098;7.582;2022-11-22T03:19:51;4.40;99.90
23591;DHT22;11973;52.098;7.582;2022-11-22T03:22:16;4.50;99.90
23591;DHT22;11973;52.098;7.582;2022-11-22T03:24:42;4.50;99.90
23591;DHT22;11973;52.098;7.582;2022-11-22T03:27:08;4.50;99.90
23591;DHT22;11973;52.098;7.582;2022-11-22T03:29:33;4.50;99.90
23591;DHT22;11973;52.098;7.582;2022-11-22T03:31:59;4.70;99.90
23591;DHT22;11973;52.098;7.582;2022-11-22T03:34:25;4.50;99.90
23591;DHT22;11973;52.098;7.582;2022-11-22T03:36:51;4.50;99.90
23591;DHT22;11973;52.098;7.582;2022-11-22T03:39:17;4.50;99.90
23591;DHT22;11973;52.098;7.582;2022-11-22T03:41:42;4.70;99.90
23591;DHT22;11973;52.098;7.582;2022-11-22T03:44:08;4.50;99.90
23591;DHT22;11973;52.098;7.582;2022-11-22T03:46:34;4.50;99.90
23591;DHT22;11973;52.098;7.582;2022-11-22T03:48:59;4.70;99.90
23591;DHT22;11973;52.098;7.582;2022-11-22T03:51:26;4.50;99.90
23591;DHT22;11973;52.098;7.582;2022-11-22T03:53:51;4.50;99.90
23591;DHT22;11973;52.098;7.582;2022-11-22T03:56:17;4.80;99.90
23591;DHT22;11973;52.098;7.582;2022-11-22T03:58:43;4.60;99.90
23591;DHT22;11973;52.098;7.582;2022-11-22T04:01:10;4.60;99.90
23591;DHT22;11973;52.098;7.582;2022-11-22T04:03:35;4.60;99.90
23591;DHT22;11973;52.098;7.582;2022-11-22T04:06:01;4.60;99.90
23591;DHT22;11973;52.098;7.582;2022-11-22T04:08:27;4.60;99.90
23591;DHT22;11973;52.098;7.582;2022-11-22T04:10:52;4.70;99.90
23591;DHT22;11973;52.098;7.582;2022-11-22T04:13:18;4.60;99.90
23591;DHT22;11973;52.098;7.582;2022-11-22T04:15:44;4.60;99.90
23591;DHT22;11973;52.098;7.582;2022-11-22T04:18:12;4.60;99.90
23591;DHT22;11973;52.098;7.582;2022-11-22T04:20:38;4.60;99.90
23591;DHT22;11973;52.098;7.582;2022-11-22T04:23:24;4.90;99.90
23591;DHT22;11973;52.098;7.582;2022-11-22T04:25:52;4.70;99.90
23591;DHT22;11973;52.098;7.582;2022-11-22T04:28:21;4.70;99.90
23591;DHT22;11973;52.098;7.582;2022-11-22T04:30:48;4.70;99.90
23591;DHT22;11973;52.098;7.582;2022-11-22T04:33:33;4.70;99.90
23591;DHT22;11973;52.098;7.582;2022-11-22T04:35:58;4.70;99.90
23591;DHT22;11973;52.098;7.582;2022-11-22T04:38:24;4.80;99.90
23591;DHT22;11973;52.098;7.582;2022-11-22T04:40:50;4.70;99.90
23591;DHT22;11973;52.098;7.582;2022-11-22T04:46:07;4.70;99.90
23591;DHT22;11973;52.098;7.582;2022-11-22T04:48:33;4.70;99.90
23591;DHT22;11973;52.098;7.582;2022-11-22T04:50:59;4.70;99.90
23591;DHT22;11973;52.098;7.582;2022-11-22T04:53:43;4.70;99.90
23591;DHT22;11973;52.098;7.582;2022-11-22T04:56:10;4.80;99.90
23591;DHT22;11973;52.098;7.582;2022-11-22T04:58:36;4.70;99.90
23591;DHT22;11973;52.098;7.582;2022-11-22T05:01:01;4.80;99.90
23591;DHT22;11973;52.098;7.582;2022-11-22T05:03:28;4.80;99.90
23591;DHT22;11973;52.098;7.582;2022-11-22T05:05:54;4.80;99.90
23591;DHT22;11973;52.098;7.582;2022-11-22T05:08:20;4.80;99.90
23591;DHT22;11973;52.098;7.582;2022-11-22T05:10:47;4.80;99.90
23591;DHT22;11973;52.098;7.582;2022-11-22T06:01:52;3.50;99.90
23591;DHT22;11973;52.098;7.582;2022-11-22T06:04:18;3.50;99.90
23591;DHT22;11973;52.098;7.582;2022-11-22T06:06:45;3.40;99.90
23591;DHT22;11973;52.098;7.582;2022-11-22T06:09:11;3.40;99.90
23591;DHT22;11973;52.098;7.582;2022-11-22T06:11:37;3.30;99.90
23591;DHT22;11973;52.098;7.582;2022-11-22T06:14:03;3.30;99.90
23591;DHT22;11973;52.098;7.582;2022-11-22T06:16:28;3.20;99.90
23591;DHT22;11973;52.098;7.582;2022-11-22T06:18:55;3.20;99.90
23591;DHT22;11973;52.098;7.582;2022-11-22T06:21:22;3.10;99.90
23591;DHT22;11973;52.098;7.582;2022-11-22T06:23:49;3.10;99.90
23591;DHT22;11973;52.098;7.582;2022-11-22T06:26:17;3.10;99.90
23591;DHT22;11973;52.098;7.582;2022-11-22T06:28:44;3.10;99.90
23591;DHT22;11973;52.098;7.582;2022-11-22T06:33:37;3.00;99.90
23591;DHT22;11973;52.098;7.582;2022-11-22T06:36:08;3.00;99.90
23591;DHT22;11973;52.098;7.582;2022-11-22T06:38:34;3.00;99.90
23591;DHT22;11973;52.098;7.582;2022-11-22T06:41:07;3.00;99.90
23591;DHT22;11973;52.098;7.582;2022-11-22T06:43:35;2.90;99.90
23591;DHT22;11973;52.098;7.582;2022-11-22T06:46:02;2.90;99.90
23591;DHT22;11973;52.098;7.582;2022-11-22T06:48:29;2.90;99.90
23591;DHT22;11973;52.098;7.582;2022-11-22T06:51:04;3.00;99.90
23591;DHT22;11973;52.098;7.582;2022-11-22T06:53:31;2.90;99.90
23591;DHT22;11973;52.098;7.582;2022-11-22T06:56:05;2.80;99.90
23591;DHT22;11973;52.098;7.582;2022-11-22T06:58:31;2.80;99.90
23591;DHT22;11973;52.098;7.582;2022-11-22T07:01:04;2.80;99.90
23591;DHT22;11973;52.098;7.582;2022-11-22T07:03:30;2.80;99.90
23591;DHT22;11973;52.098;7.582;2022-11-22T07:05:56;2.80;99.90
23591;DHT22;11973;52.098;7.582;2022-11-22T07:08:22;2.80;99.90
23591;DHT22;11973;52.098;7.582;2022-11-22T07:10:48;2.80;99.90
23591;DHT22;11973;52.098;7.582;2022-11-22T07:13:14;2.80;99.90
23591;DHT22;11973;52.098;7.582;2022-11-22T07:15:40;2.90;99.90
23591;DHT22;11973;52.098;7.582;2022-11-22T07:18:06;2.90;99.90
23591;DHT22;11973;52.098;7.582;2022-11-22T07:20:31;2.80;99.90
23591;DHT22;11973;52.098;7.582;2022-11-22T07:22:57;2.80;99.90
23591;DHT22;11973;52.098;7.582;2022-11-22T07:25:23;2.80;99.90
23591;DHT22;11973;52.098;7.582;2022-11-22T07:27:51;2.80;99.90
23591;DHT22;11973;52.098;7.582;2022-11-22T07:30:17;2.90;99.90
23591;DHT22;11973;52.098;7.582;2022-11-22T07:32:46;2.80;99.90
23591;DHT22;11973;52.098;7.582;2022-11-22T07:35:12;2.90;99.90
23591;DHT22;11973;52.098;7.582;2022-11-22T07:37:38;2.90;99.90
23591;DHT22;11973;52.098;7.582;2022-11-22T07:40:04;2.90;99.90
23591;DHT22;11973;52.098;7.582;2022-11-22T07:42:30;2.90;99.90
23591;DHT22;11973;52.098;7.582;2022-11-22T07:44:55;3.00;99.90
23591;DHT22;11973;52.098;7.582;2022-11-22T07:47:21;3.10;99.90
23591;DHT22;11973;52.098;7.582;2022-11-22T07:49:47;3.00;99.90
23591;DHT22;11973;52.098;7.582;2022-11-22T07:52:12;3.00;99.90
23591;DHT22;11973;52.098;7.582;2022-11-22T07:54:38;3.00;99.90
23591;DHT22;11973;52.098;7.582;2022-11-22T07:57:04;3.00;99.90
23591;DHT22;11973;52.098;7.582;2022-11-22T07:59:29;3.00;99.90
23591;DHT22;11973;52.098;7.582;2022-11-22T08:01:55;3.00;99.90
23591;DHT22;11973;52.098;7.582;2022-11-22T08:04:21;3.00;99.90
23591;DHT22;11973;52.098;7.582;2022-11-22T08:06:46;3.00;99.90
23591;DHT22;11973;52.098;7.582;2022-11-22T08:09:12;3.00;99.90
23591;DHT22;11973;52.098;7.582;2022-11-22T08:11:38;3.00;99.90
23591;DHT22;11973;52.098;7.582;2022-11-22T08:14:03;3.00;99.90
23591;DHT22;11973;52.098;7.582;2022-11-22T08:16:29;3.00;99.90
23591;DHT22;11973;52.098;7.582;2022-11-22T08:18:55;3.00;99.90
23591;DHT22;11973;52.098;7.582;2022-11-22T08:21:21;3.00;99.90
23591;DHT22;11973;52.098;7.582;2022-11-22T08:23:47;3.10;99.90
23591;DHT22;11973;52.098;7.582;2022-11-22T08:26:15;3.10;99.90
23591;DHT22;11973;52.098;7.582;2022-11-22T08:28:41;3.00;99.90
23591;DHT22;11973;52.098;7.582;2022-11-22T08:31:15;3.10;99.90
23591;DHT22;11973;52.098;7.582;2022-11-22T08:33:43;3.10;99.90
23591;DHT22;11973;52.098;7.582;2022-11-22T08:36:09;3.10;99.90
23591;DHT22;11973;52.098;7.582;2022-11-22T08:38:35;3.10;99.90
23591;DHT22;11973;52.098;7.582;2022-11-22T08:41:01;3.10;99.90
23591;DHT22;11973;52.098;7.582;2022-11-22T08:43:28;3.20;99.90
23591;DHT22;11973;52.098;7.582;2022-11-22T08:45:56;3.20;99.90
23591;DHT22;11973;52.098;7.582;2022-11-22T08:48:23;3.30;99.90
23591;DHT22;11973;52.098;7.582;2022-11-22T08:50:53;3.30;99.90
23591;DHT22;11973;52.098;7.582;2022-11-22T08:53:19;3.30;99.90
23591;DHT22;11973;52.098;7.582;2022-11-22T08:55:45;3.40;99.90
23591;DHT22;11973;52.098;7.582;2022-11-22T08:58:11;3.40;99.90
23591;DHT22;11973;52.098;7.582;2022-11-22T09:00:36;3.50;99.90
23591;DHT22;11973;52.098;7.582;2022-11-22T09:03:02;3.50;99.90
23591;DHT22;11973;52.098;7.582;2022-11-22T09:05:29;3.60;99.90
23591;DHT22;11973;52.098;7.582;2022-11-22T09:07:55;3.70;99.90
23591;DHT22;11973;52.098;7.582;2022-11-22T09:10:21;3.70;99.90
23591;DHT22;11973;52.098;7.582;2022-11-22T09:12:47;3.80;99.90
23591;DHT22;11973;52.098;7.582;2022-11-22T09:15:13;3.80;99.90
23591;DHT22;11973;52.098;7.582;2022-11-22T09:17:40;3.90;99.90
23591;DHT22;11973;52.098;7.582;2022-11-22T09:20:07;4.00;99.90
23591;DHT22;11973;52.098;7.582;2022-11-22T09:22:33;4.00;99.90
23591;DHT22;11973;52.098;7.582;2022-11-22T09:24:59;4.10;99.90
23591;DHT22;11973;52.098;7.582;2022-11-22T09:27:25;4.20;99.90
23591;DHT22;11973;52.098;7.582;2022-11-22T09:29:51;4.20;99.90
23591;DHT22;11973;52.098;7.582;2022-11-22T09:32:17;4.30;99.90
23591;DHT22;11973;52.098;7.582;2022-11-22T09:34:42;4.40;99.90
23591;DHT22;11973;52.098;7.582;2022-11-22T09:37:08;4.40;99.90
23591;DHT22;11973;52.098;7.582;2022-11-22T09:39:34;4.50;99.90
23591;DHT22;11973;52.098;7.582;2022-11-22T09:42:15;4.50;99.90
23591;DHT22;11973;52.098;7.582;2022-11-22T09:47:41;4.60;99.90
23591;DHT22;11973;52.098;7.582;2022-11-22T09:50:45;4.70;99.90
23591;DHT22;11973;52.098;7.582;2022-11-22T09:54:02;4.70;99.90
23591;DHT22;11973;52.098;7.582;2022-11-22T09:56:07;4.80;99.90
23591;DHT22;11973;52.098;7.582;2022-11-22T09:58:38;4.80;99.90
23591;DHT22;11973;52.098;7.582;2022-11-22T10:01:13;4.90;99.90
23591;DHT22;11973;52.098;7.582;2022-11-22T10:03:50;4.90;99.90
23591;DHT22;11973;52.098;7.582;2022-11-22T10:06:30;5.00;99.90
23591;DHT22;11973;52.098;7.582;2022-11-22T10:18:00;5.20;99.90
23591;DHT22;11973;52.098;7.582;2022-11-22T10:20:31;5.20;99.90
23591;DHT22;11973;52.098;7.582;2022-11-22T10:23:01;5.30;99.90
23591;DHT22;11973;52.098;7.582;2022-11-22T10:28:07;5.40;99.90
23591;DHT22;11973;52.098;7.582;2022-11-22T10:30:40;5.40;99.90
23591;DHT22;11973;52.098;7.582;2022-11-22T10:33:14;5.40;99.90
23591;DHT22;11973;52.098;7.582;2022-11-22T10:35:50;5.50;99.90
23591;DHT22;11973;52.098;7.582;2022-11-22T10:43:46;5.60;99.90
23591;DHT22;11973;52.098;7.582;2022-11-22T10:46:32;5.70;99.90
23591;DHT22;11973;52.098;7.582;2022-11-22T10:49:13;5.70;99.90
23591;DHT22;11973;52.098;7.582;2022-11-22T10:51:55;5.80;99.90
23591;DHT22;11973;52.098;7.582;2022-11-22T11:01:55;6.00;99.90
23591;DHT22;11973;52.098;7.582;2022-11-22T11:04:28;6.20;99.90
23591;DHT22;11973;52.098;7.582;2022-11-22T11:06:56;6.10;99.90
23591;DHT22;11973;52.098;7.582;2022-11-22T11:12:08;6.30;99.90
23591;DHT22;11973;52.098;7.582;2022-11-22T11:14:39;6.40;99.90
23591;DHT22;11973;52.098;7.582;2022-11-22T11:17:06;6.50;99.90
23591;DHT22;11973;52.098;7.582;2022-11-22T11:19:37;6.50;99.90
23591;DHT22;11973;52.098;7.582;2022-11-22T11:24:35;6.70;99.90
23591;DHT22;11973;52.098;7.582;2022-11-22T11:27:02;6.90;99.90
23591;DHT22;11973;52.098;7.582;2022-11-22T11:32:13;7.10;99.90
23591;DHT22;11973;52.098;7.582;2022-11-22T11:34:42;7.20;99.90
23591;DHT22;11973;52.098;7.582;2022-11-22T11:37:20;7.30;99.90
23591;DHT22;11973;52.098;7.582;2022-11-22T11:39:46;7.40;99.90
23591;DHT22;11973;52.098;7.582;2022-11-22T11:42:24;7.50;99.90
23591;DHT22;11973;52.098;7.582;2022-11-22T11:44:51;7.50;99.90
23591;DHT22;11973;52.098;7.582;2022-11-22T11:47:19;7.60;99.90
23591;DHT22;11973;52.098;7.582;2022-11-22T11:49:55;7.70;99.90
23591;DHT22;11973;52.098;7.582;2022-11-22T11:52:21;7.70;99.90
23591;DHT22;11973;52.098;7.582;2022-11-22T11:54:51;7.90;99.90
23591;DHT22;11973;52.098;7.582;2022-11-22T11:57:27;8.00;99.90
23591;DHT22;11973;52.098;7.582;2022-11-22T11:59:58;7.90;99.90
23591;DHT22;11973;52.098;7.582;2022-11-22T12:12:54;8.30;99.90
23591;DHT22;11973;52.098;7.582;2022-11-22T12:23:46;8.30;99.90
23591;DHT22;11973;52.098;7.582;2022-11-22T12:26:15;8.50;99.90
23591;DHT22;11973;52.098;7.582;2022-11-22T12:28:42;8.40;99.90
23591;DHT22;11973;52.098;7.582;2022-11-22T12:31:27;8.60;99.90
23591;DHT22;11973;52.098;7.582;2022-11-22T12:34:10;8.40;99.90
23591;DHT22;11973;52.098;7.582;2022-11-22T12:36:43;8.40;99.90
23591;DHT22;11973;52.098;7.582;2022-11-22T12:39:20;8.50;99.90
23591;DHT22;11973;52.098;7.582;2022-11-22T12:41:48;8.50;99.90
23591;DHT22;11973;52.098;7.582;2022-11-22T12:44:19;8.40;99.90
23591;DHT22;11973;52.098;7.582;2022-11-22T12:46:46;8.40;99.90
23591;DHT22;11973;52.098;7.582;2022-11-22T12:53:13;8.40;99.90
23591;DHT22;11973;52.098;7.582;2022-11-22T13:00:14;8.30;99.90
23591;DHT22;11973;52.098;7.582;2022-11-22T13:05:24;8.20;99.90
23591;DHT22;11973;52.098;7.582;2022-11-22T13:08:15;8.20;99.90
23591;DHT22;11973;52.098;7.582;2022-11-22T13:10:52;8.20;99.90
23591;DHT22;11973;52.098;7.582;2022-11-22T13:13:36;8.20;99.90
23591;DHT22;11973;52.098;7.582;2022-11-22T13:16:08;8.20;99.90
23591;DHT22;11973;52.098;7.582;2022-11-22T13:18:38;8.20;99.90
23591;DHT22;11973;52.098;7.582;2022-11-22T13:26:14;8.20;99.90
23591;DHT22;11973;52.098;7.582;2022-11-22T13:28:44;8.10;99.90
23591;DHT22;11973;52.098;7.582;2022-11-22T13:33:37;8.10;99.90
23591;DHT22;11973;52.098;7.582;2022-11-22T13:36:24;8.20;99.90
23591;DHT22;11973;52.098;7.582;2022-11-22T13:39:18;8.00;99.90
23591;DHT22;11973;52.098;7.582;2022-11-22T13:46:58;8.00;99.90
23591;DHT22;11973;52.098;7.582;2022-11-22T13:52:26;7.80;99.90
23591;DHT22;11973;52.098;7.582;2022-11-22T13:57:40;7.70;99.90
23591;DHT22;11973;52.098;7.582;2022-11-22T14:02:52;7.70;99.90
23591;DHT22;11973;52.098;7.582;2022-11-22T14:05:37;7.70;99.90
23591;DHT22;11973;52.098;7.582;2022-11-22T14:08:04;7.70;99.90
23591;DHT22;11973;52.098;7.582;2022-11-22T14:16:39;7.60;99.90
23591;DHT22;11973;52.098;7.582;2022-11-22T14:19:41;7.60;99.90
23591;DHT22;11973;52.098;7.582;2022-11-22T14:22:25;7.60;99.90
23591;DHT22;11973;52.098;7.582;2022-11-22T14:27:42;7.50;99.90
23591;DHT22;11973;52.098;7.582;2022-11-22T14:30:18;7.50;99.90
23591;DHT22;11973;52.098;7.582;2022-11-22T14:33:02;7.50;99.90
23591;DHT22;11973;52.098;7.582;2022-11-22T14:36:11;7.50;99.90
23591;DHT22;11973;52.098;7.582;2022-11-22T14:38:26;7.50;99.90
23591;DHT22;11973;52.098;7.582;2022-11-22T14:46:57;7.40;99.90
23591;DHT22;11973;52.098;7.582;2022-11-22T14:52:04;7.40;99.90
23591;DHT22;11973;52.098;7.582;2022-11-22T14:54:51;7.40;99.90
23591;DHT22;11973;52.098;7.582;2022-11-22T14:57:25;7.40;99.90
23591;DHT22;11973;52.098;7.582;2022-11-22T15:00:22;7.40;99.90
23591;DHT22;11973;52.098;7.582;2022-11-22T15:09:00;7.40;99.90
23591;DHT22;11973;52.098;7.582;2022-11-22T15:11:47;7.40;99.90
23591;DHT22;11973;52.098;7.582;2022-11-22T15:17:33;7.30;99.90
23591;DHT22;11973;52.098;7.582;2022-11-22T15:20:03;7.30;99.90
23591;DHT22;11973;52.098;7.582;2022-11-22T15:22:29;7.30;99.90
23591;DHT22;11973;52.098;7.582;2022-11-22T15:24:57;7.40;99.90
23591;DHT22;11973;52.098;7.582;2022-11-22T15:27:38;7.30;99.90
23591;DHT22;11973;52.098;7.582;2022-11-22T15:30:18;7.30;99.90
23591;DHT22;11973;52.098;7.582;2022-11-22T15:32:46;7.20;99.90
23591;DHT22;11973;52.098;7.582;2022-11-22T15:35:22;7.40;99.90
23591;DHT22;11973;52.098;7.582;2022-11-22T15:40:18;7.20;99.90
23591;DHT22;11973;52.098;7.582;2022-11-22T15:42:56;7.20;99.90
23591;DHT22;11973;52.098;7.582;2022-11-22T15:45:23;7.10;99.90
23591;DHT22;11973;52.098;7.582;2022-11-22T15:47:59;7.20;99.90
23591;DHT22;11973;52.098;7.582;2022-11-22T15:50:26;7.20;99.90
23591;DHT22;11973;52.098;7.582;2022-11-22T15:52:54;7.10;99.90
23591;DHT22;11973;52.098;7.582;2022-11-22T15:55:23;7.10;99.90
23591;DHT22;11973;52.098;7.582;2022-11-22T15:57:52;7.10;99.90
23591;DHT22;11973;52.098;7.582;2022-11-22T16:00:26;7.10;99.90
23591;DHT22;11973;52.098;7.582;2022-11-22T16:02:58;7.20;99.90
23591;DHT22;11973;52.098;7.582;2022-11-22T16:05:34;7.20;99.90
23591;DHT22;11973;52.098;7.582;2022-11-22T16:08:02;7.10;99.90
23591;DHT22;11973;52.098;7.582;2022-11-22T16:10:38;7.10;99.90
23591;DHT22;11973;52.098;7.582;2022-11-22T16:13:24;7.10;99.90
23591;DHT22;11973;52.098;7.582;2022-11-22T16:16:03;7.10;99.90
23591;DHT22;11973;52.098;7.582;2022-11-22T16:18:29;7.10;99.90
23591;DHT22;11973;52.098;7.582;2022-11-22T16:21:18;7.10;99.90
23591;DHT22;11973;52.098;7.582;2022-11-22T16:23:44;7.20;99.90
23591;DHT22;11973;52.098;7.582;2022-11-22T16:26:18;7.10;99.90
23591;DHT22;11973;52.098;7.582;2022-11-22T16:28:45;7.10;99.90
23591;DHT22;11973;52.098;7.582;2022-11-22T16:31:24;7.10;99.90
23591;DHT22;11973;52.098;7.582;2022-11-22T16:33:51;7.10;99.90
23591;DHT22;11973;52.098;7.582;2022-11-22T16:36:20;7.10;99.90
23591;DHT22;11973;52.098;7.582;2022-11-22T16:38:46;7.10;99.90
23591;DHT22;11973;52.098;7.582;2022-11-22T16:41:25;7.00;99.90
23591;DHT22;11973;52.098;7.582;2022-11-22T16:43:54;7.10;99.90
23591;DHT22;11973;52.098;7.582;2022-11-22T16:46:21;7.00;99.90
23591;DHT22;11973;52.098;7.582;2022-11-22T16:48:47;7.00;99.90
23591;DHT22;11973;52.098;7.582;2022-11-22T16:51:22;7.10;99.90
23591;DHT22;11973;52.098;7.582;2022-11-22T16:53:50;7.00;99.90
23591;DHT22;11973;52.098;7.582;2022-11-22T16:56:18;7.20;99.90
23591;DHT22;11973;52.098;7.582;2022-11-22T16:58:48;7.00;99.90
23591;DHT22;11973;52.098;7.582;2022-11-22T17:01:18;7.00;99.90
23591;DHT22;11973;52.098;7.582;2022-11-22T17:03:45;7.10;99.90
23591;DHT22;11973;52.098;7.582;2022-11-22T17:06:19;7.20;99.90
23591;DHT22;11973;52.098;7.582;2022-11-22T17:08:46;7.20;99.90
23591;DHT22;11973;52.098;7.582;2022-11-22T17:11:15;7.10;99.90
23591;DHT22;11973;52.098;7.582;2022-11-22T17:13:41;7.10;99.90
23591;DHT22;11973;52.098;7.582;2022-11-22T17:16:09;7.10;99.90
23591;DHT22;11973;52.098;7.582;2022-11-22T17:18:35;7.10;99.90
23591;DHT22;11973;52.098;7.582;2022-11-22T17:21:04;7.20;99.90
23591;DHT22;11973;52.098;7.582;2022-11-22T17:23:33;7.10;99.90
23591;DHT22;11973;52.098;7.582;2022-11-22T17:26:01;7.10;99.90
23591;DHT22;11973;52.098;7.582;2022-11-22T17:28:27;7.10;99.90
23591;DHT22;11973;52.098;7.582;2022-11-22T17:30:53;7.10;99.90
23591;DHT22;11973;52.098;7.582;2022-11-22T17:33:22;7.20;99.90
23591;DHT22;11973;52.098;7.582;2022-11-22T17:35:49;7.10;99.90
23591;DHT22;11973;52.098;7.582;2022-11-22T17:38:15;7.20;99.90
23591;DHT22;11973;52.098;7.582;2022-11-22T17:40:41;7.10;99.90
23591;DHT22;11973;52.098;7.582;2022-11-22T17:43:10;7.10;99.90
23591;DHT22;11973;52.098;7.582;2022-11-22T17:45:40;7.10;99.90
23591;DHT22;11973;52.098;7.582;2022-11-22T17:48:10;7.20;99.90
23591;DHT22;11973;52.098;7.582;2022-11-22T17:50:36;7.10;99.90
23591;DHT22;11973;52.098;7.582;2022-11-22T17:53:02;7.10;99.90
23591;DHT22;11973;52.098;7.582;2022-11-22T17:55:28;7.10;99.90
23591;DHT22;11973;52.098;7.582;2022-11-22T17:57:53;7.10;99.90
23591;DHT22;11973;52.098;7.582;2022-11-22T18:00:19;7.10;99.90
23591;DHT22;11973;52.098;7.582;2022-11-22T18:02:45;7.10;99.90
23591;DHT22;11973;52.098;7.582;2022-11-22T18:05:11;7.10;99.90
23591;DHT22;11973;52.098;7.582;2022-11-22T18:07:37;7.10;99.90
23591;DHT22;11973;52.098;7.582;2022-11-22T18:10:08;7.10;99.90
23591;DHT22;11973;52.098;7.582;2022-11-22T18:12:35;7.10;99.90
23591;DHT22;11973;52.098;7.582;2022-11-22T18:15:02;7.10;99.90
23591;DHT22;11973;52.098;7.582;2022-11-22T18:17:30;7.10;99.90
23591;DHT22;11973;52.098;7.582;2022-11-22T18:19:57;7.10;99.90
23591;DHT22;11973;52.098;7.582;2022-11-22T18:22:23;7.30;99.90
23591;DHT22;11973;52.098;7.582;2022-11-22T18:24:49;7.10;99.90
23591;DHT22;11973;52.098;7.582;2022-11-22T18:27:14;7.30;99.90
23591;DHT22;11973;52.098;7.582;2022-11-22T18:29:40;7.20;99.90
23591;DHT22;11973;52.098;7.582;2022-11-22T18:32:06;7.20;99.90
23591;DHT22;11973;52.098;7.582;2022-11-22T18:34:32;7.10;99.90
23591;DHT22;11973;52.098;7.582;2022-11-22T18:36:58;7.10;99.90
23591;DHT22;11973;52.098;7.582;2022-11-22T18:39:24;7.20;99.90
23591;DHT22;11973;52.098;7.582;2022-11-22T18:41:50;7.00;99.90
23591;DHT22;11973;52.098;7.582;2022-11-22T18:44:16;7.00;99.90
23591;DHT22;11973;52.098;7.582;2022-11-22T18:46:42;6.90;99.90
23591;DHT22;11973;52.098;7.582;2022-11-22T18:49:08;7.00;99.90
23591;DHT22;11973;52.098;7.582;2022-11-22T18:51:34;6.90;99.90
23591;DHT22;11973;52.098;7.582;2022-11-22T18:54:00;6.90;99.90
23591;DHT22;11973;52.098;7.582;2022-11-22T18:56:26;6.90;99.90
23591;DHT22;11973;52.098;7.582;2022-11-22T18:58:52;6.90;99.90